This is the latest recevied weather packets stored in our database for station/object HG8LXL-2. If no packets are shown the sender has not sent any weather packets the latest 10 day(s).
| Time | Temp. | Humidity | Pressure | Rain* | Wind** | Luminosity | Snow |
|---|---|---|---|---|---|---|---|
| 1777385997 | 26.11° C | 12% | 1014.5 hPa | - | - | - | - |
| 1777385698 | 26.11° C | 12% | 1014.4 hPa | - | - | - | - |
| 1777385398 | 26.11° C | 12% | 1014.5 hPa | - | - | - | - |
| 1777385098 | 25.56° C | 12% | 1014.6 hPa | - | - | - | - |
| 1777384798 | 25.56° C | 12% | 1014.5 hPa | - | - | - | - |
| 1777384498 | 26.11° C | 12% | 1014.6 hPa | - | - | - | - |
| 1777384197 | 25.56° C | 12% | 1014.7 hPa | - | - | - | - |
| 1777383898 | 25.56° C | 11% | 1014.8 hPa | - | - | - | - |
| 1777383598 | 26.11° C | 12% | 1014.7 hPa | - | - | - | - |
| 1777383298 | 25.56° C | 12% | 1014.8 hPa | - | - | - | - |
| 1777382998 | 25° C | 12% | 1014.8 hPa | - | - | - | - |
| 1777382698 | 26.67° C | 11% | 1014.8 hPa | - | - | - | - |
| 1777382398 | 25.56° C | 12% | 1014.9 hPa | - | - | - | - |
| 1777382098 | 25.56° C | 12% | 1014.9 hPa | - | - | - | - |
| 1777381798 | 26.11° C | 11% | 1015 hPa | - | - | - | - |
| 1777381498 | 27.22° C | 10% | 1014.8 hPa | - | - | - | - |
| 1777381198 | 26.11° C | 11% | 1014.9 hPa | - | - | - | - |
| 1777380898 | 26.11° C | 11% | 1015 hPa | - | - | - | - |
| 1777380598 | 26.11° C | 12% | 1015.1 hPa | - | - | - | - |
| 1777380298 | 26.11° C | 11% | 1015.1 hPa | - | - | - | - |
| 1777379998 | 25° C | 12% | 1015.3 hPa | - | - | - | - |
| 1777379697 | 24.44° C | 14% | 1015.3 hPa | - | - | - | - |
| 1777379398 | 24.44° C | 13% | 1015.3 hPa | - | - | - | - |
| 1777379098 | 25.56° C | 12% | 1015.3 hPa | - | - | - | - |
| 1777378798 | 24.44° C | 13% | 1015.4 hPa | - | - | - | - |
* Rain since midnight (hover to see other rain measurements)
** Current wind speed in m/s (hover to see current wind gust speed)